createdAt,value
2017-01-22T00:01:18.874Z,86.48
2017-01-22T00:02:00.581Z,86.1
2017-01-22T00:02:42.276Z,86.67
2017-01-22T00:03:24.010Z,86.48
2017-01-22T00:05:39.341Z,86.01
2017-01-22T00:07:34.105Z,86.19
2017-01-22T00:08:15.876Z,86.48
2017-01-22T00:08:57.596Z,86.57
2017-01-22T00:09:39.046Z,86.76
2017-01-22T00:10:20.752Z,86.86
2017-01-22T00:11:02.431Z,86.67
2017-01-22T00:11:44.127Z,86.48
2017-01-22T00:12:25.641Z,86.48
2017-01-22T00:13:07.426Z,86.19
2017-01-22T00:15:02.132Z,86.86
2017-01-22T00:17:22.702Z,86.67
2017-01-22T00:18:04.383Z,87.33
2017-01-22T00:19:53.750Z,87.33
2017-01-22T00:20:35.481Z,87.14
2017-01-22T00:21:17.123Z,87.14
2017-01-22T00:23:06.450Z,87.14
2017-01-22T00:23:48.263Z,87.05
2017-01-22T00:24:30.071Z,86.95
2017-01-22T00:25:11.687Z,87.05
2017-01-22T00:27:32.381Z,87.62
2017-01-22T00:29:27.085Z,87.43
2017-01-22T00:31:21.722Z,87.52
2017-01-22T00:33:21.793Z,87.8
2017-01-22T00:34:03.410Z,87.52
2017-01-22T00:34:45.323Z,88.09
2017-01-22T00:35:27.110Z,87.9
2017-01-22T00:36:08.852Z,87.9
2017-01-22T00:36:50.565Z,87.99
2017-01-22T00:37:32.329Z,86.95
2017-01-22T00:39:26.956Z,87.14
2017-01-22T00:41:16.407Z,88.18
2017-01-22T00:41:58.159Z,87.9
2017-01-22T00:43:47.348Z,87.9
2017-01-22T00:44:29.205Z,87.9
2017-01-22T00:45:10.977Z,88.46
2017-01-22T00:47:00.310Z,88.28
2017-01-22T00:47:42.120Z,88.23
2017-01-22T00:48:23.885Z,88.23
2017-01-22T00:49:05.235Z,88.42
2017-01-22T00:49:47.151Z,88.04
2017-01-22T00:50:28.815Z,88.04
2017-01-22T00:51:10.507Z,88.04
2017-01-22T00:53:05.196Z,88.42
2017-01-22T00:53:46.818Z,88.51
2017-01-22T00:56:07.499Z,89.08
2017-01-22T00:56:49.194Z,88.79
2017-01-22T00:57:30.726Z,88.79
2017-01-22T00:58:12.293Z,89.08
2017-01-22T00:58:53.991Z,88.98
2017-01-22T01:00:54.115Z,88.79
2017-01-22T01:01:35.728Z,88.89
2017-01-22T01:02:17.420Z,88.89
2017-01-22T01:02:58.997Z,88.6
2017-01-22T01:03:40.817Z,88.6
2017-01-22T01:04:22.429Z,89.27
2017-01-22T01:05:04.085Z,88.7
2017-01-22T01:05:45.841Z,88.6
2017-01-22T01:06:27.655Z,88.7
2017-01-22T01:07:09.353Z,89.08
2017-01-22T01:07:51.041Z,88.98
2017-01-22T01:08:32.831Z,89.17
2017-01-22T01:09:14.468Z,89.17
2017-01-22T01:09:56.135Z,88.98
2017-01-22T01:11:45.527Z,88.98
2017-01-22T01:14:06.126Z,89.08
2017-01-22T01:14:47.623Z,89.64
2017-01-22T01:18:26.482Z,89.55
2017-01-22T01:19:08.166Z,88.93
2017-01-22T01:19:49.871Z,88.75
2017-01-22T01:22:10.547Z,89.12
2017-01-22T01:22:52.080Z,89.03
2017-01-22T01:23:33.719Z,89.4
2017-01-22T01:24:15.352Z,89.03
2017-01-22T01:24:57.011Z,88.93
2017-01-22T01:25:38.720Z,88.93
2017-01-22T01:26:20.474Z,88.84
2017-01-22T01:27:02.221Z,88.84
2017-01-22T01:27:44.081Z,88.93
2017-01-22T01:28:25.723Z,88.65
2017-01-22T01:29:07.334Z,88.84
2017-01-22T01:29:49.030Z,88.84
2017-01-22T01:30:30.799Z,88.84
2017-01-22T01:31:12.443Z,88.75
2017-01-22T01:31:54.096Z,88.93
2017-01-22T01:32:35.778Z,88.56
2017-01-22T01:33:17.499Z,88.56
2017-01-22T01:33:59.059Z,88.65
2017-01-22T01:34:40.814Z,88.65
2017-01-22T01:35:22.528Z,89.4
2017-01-22T01:36:04.219Z,88.46
2017-01-22T01:36:45.920Z,89.22
2017-01-22T01:37:27.577Z,89.22
2017-01-22T01:38:09.306Z,89.03
2017-01-22T01:38:50.903Z,89.03
2017-01-22T01:39:32.629Z,89.12
2017-01-22T01:41:21.994Z,89.31
2017-01-22T01:42:03.565Z,89.03
2017-01-22T01:42:45.300Z,89.03
2017-01-22T01:43:27.023Z,89.22
2017-01-22T01:44:08.719Z,89.12
2017-01-22T01:45:58.017Z,89.59
2017-01-22T01:46:39.609Z,89.59
2017-01-22T01:47:21.459Z,89.78
2017-01-22T01:49:21.500Z,89.59
2017-01-22T01:51:42.165Z,89.59
2017-01-22T01:52:23.817Z,89.78
2017-01-22T01:53:05.628Z,89.59
2017-01-22T01:53:46.906Z,89.59
2017-01-22T01:54:28.491Z,89.5
2017-01-22T01:55:09.986Z,89.69
2017-01-22T01:55:51.376Z,89.5
2017-01-22T01:56:33.101Z,89.5
2017-01-22T01:57:14.684Z,89.59
2017-01-22T01:57:56.391Z,89.69
2017-01-22T01:58:38.150Z,89.69
2017-01-22T02:00:52.824Z,89.69
2017-01-22T02:01:33.354Z,89.59
2017-01-22T02:02:13.883Z,89.4
2017-01-22T02:02:54.409Z,89.59
2017-01-22T02:03:34.939Z,89.59
2017-01-22T02:04:15.471Z,89.59
2017-01-22T02:04:55.998Z,89.59
2017-01-22T02:05:36.532Z,89.69
2017-01-22T02:06:17.057Z,89.4
2017-01-22T02:06:57.587Z,89.5
2017-01-22T02:07:38.116Z,89.4
2017-01-22T02:08:18.647Z,89.69
2017-01-22T02:08:59.188Z,89.5
2017-01-22T02:09:39.715Z,89.5
2017-01-22T02:10:20.240Z,89.59
2017-01-22T02:11:00.773Z,89.31
2017-01-22T02:11:41.300Z,89.69
2017-01-22T02:12:21.818Z,89.5
2017-01-22T02:13:02.349Z,89.59
2017-01-22T02:13:42.874Z,89.88
2017-01-22T02:14:23.400Z,89.59
2017-01-22T02:15:03.921Z,89.88
2017-01-22T02:15:44.450Z,89.59
2017-01-22T02:16:24.980Z,89.5
2017-01-22T02:17:05.503Z,89.59
2017-01-22T02:17:46.029Z,89.5
2017-01-22T02:18:26.558Z,89.5
2017-01-22T02:19:07.093Z,89.5
2017-01-22T02:19:47.623Z,89.5
2017-01-22T02:20:28.152Z,89.5
2017-01-22T02:21:08.684Z,89.55
2017-01-22T02:21:49.210Z,89.64
2017-01-22T02:22:29.744Z,89.69
2017-01-22T02:23:10.296Z,89.5
2017-01-22T02:23:50.805Z,89.45
2017-01-22T02:24:31.333Z,89.36
2017-01-22T02:25:11.863Z,89.45
2017-01-22T02:25:52.396Z,89.5
2017-01-22T02:26:32.921Z,88.6
2017-01-22T02:27:13.450Z,89.45
2017-01-22T02:27:53.977Z,89.22
2017-01-22T02:28:34.506Z,88.75
2017-01-22T02:29:15.035Z,89.45
2017-01-22T02:29:55.559Z,89.59
2017-01-22T02:30:36.086Z,89.27
2017-01-22T02:31:16.609Z,89.31
2017-01-22T02:31:57.134Z,89.69
2017-01-22T02:32:37.663Z,89.5
2017-01-22T02:33:18.195Z,89.5
2017-01-22T02:33:58.723Z,89.5
2017-01-22T02:34:39.252Z,89.45
2017-01-22T02:35:19.780Z,89.45
2017-01-22T02:36:00.309Z,89.55
2017-01-22T02:36:40.831Z,89.36
2017-01-22T02:37:21.372Z,89.45
2017-01-22T02:38:01.889Z,89.45
2017-01-22T02:38:42.414Z,89.27
2017-01-22T02:39:22.944Z,89.27
2017-01-22T02:40:03.477Z,89.45
2017-01-22T02:40:43.998Z,89.45
2017-01-22T02:41:24.525Z,89.55
2017-01-22T02:42:05.052Z,89.45
2017-01-22T02:42:45.575Z,89.45
2017-01-22T02:43:26.105Z,89.55
2017-01-22T02:44:06.633Z,89.64
2017-01-22T02:44:47.159Z,88.79
2017-01-22T02:45:27.686Z,89.36
2017-01-22T02:46:08.214Z,88.79
2017-01-22T02:46:48.750Z,88.6
2017-01-22T02:47:29.294Z,90.02
2017-01-22T02:48:09.795Z,88.79
2017-01-22T02:48:50.315Z,90.02
2017-01-22T02:49:30.845Z,88.89
2017-01-22T02:50:11.365Z,90.12
2017-01-22T02:50:51.896Z,89.55
2017-01-22T02:51:32.425Z,89.17
2017-01-22T02:52:12.957Z,88.79
2017-01-22T02:52:53.486Z,88.79
2017-01-22T02:53:34.011Z,88.79
2017-01-22T02:54:14.537Z,90.12
2017-01-22T02:54:55.068Z,90.02
2017-01-22T02:55:35.594Z,90.02
2017-01-22T02:56:16.122Z,90.21
2017-01-22T02:56:56.654Z,90.02
2017-01-22T02:57:37.180Z,89.74
2017-01-22T02:58:17.710Z,89.74
2017-01-22T02:58:58.232Z,89.83
2017-01-22T02:59:38.782Z,90.12
2017-01-22T03:00:19.285Z,90.02
2017-01-22T03:00:59.819Z,90.12
2017-01-22T03:01:40.340Z,89.83
2017-01-22T03:02:20.867Z,90.02
2017-01-22T03:03:01.393Z,89.93
2017-01-22T03:03:41.919Z,89.93
2017-01-22T03:04:22.449Z,90.02
2017-01-22T03:05:02.974Z,89.83
2017-01-22T03:05:43.505Z,89.93
2017-01-22T03:06:24.023Z,89.93
2017-01-22T03:07:04.550Z,90.12
2017-01-22T03:07:45.074Z,90.02
2017-01-22T03:08:25.596Z,90.12
2017-01-22T03:09:06.123Z,89.93
2017-01-22T03:09:46.645Z,89.64
2017-01-22T03:10:27.176Z,90.02
2017-01-22T03:11:07.715Z,90.12
2017-01-22T03:11:48.235Z,90.02
2017-01-22T03:12:28.762Z,89.83
2017-01-22T03:13:09.290Z,89.93
2017-01-22T03:13:49.818Z,90.02
2017-01-22T03:14:30.370Z,89.64
2017-01-22T03:15:10.868Z,89.93
2017-01-22T03:15:51.399Z,89.83
2017-01-22T03:16:31.928Z,89.74
2017-01-22T03:17:12.457Z,89.83
2017-01-22T03:17:52.985Z,89.83
2017-01-22T03:18:33.515Z,90.12
2017-01-22T03:19:14.030Z,90.02
2017-01-22T03:19:54.567Z,90.02
2017-01-22T03:20:35.124Z,89.83
2017-01-22T03:21:15.646Z,90.02
2017-01-22T03:21:56.174Z,89.64
2017-01-22T03:22:36.701Z,89.64
2017-01-22T03:23:17.232Z,89.83
2017-01-22T03:23:57.763Z,89.83
2017-01-22T03:24:38.284Z,89.83
2017-01-22T03:25:18.810Z,89.83
2017-01-22T03:25:59.342Z,89.83
2017-01-22T03:26:39.865Z,89.64
2017-01-22T03:27:20.394Z,89.64
2017-01-22T03:28:00.924Z,89.93
2017-01-22T03:28:41.454Z,89.93
2017-01-22T03:29:21.983Z,89.83
2017-01-22T03:30:02.506Z,90.02
2017-01-22T03:30:43.030Z,89.83
2017-01-22T03:31:23.555Z,89.64
2017-01-22T03:32:04.085Z,90.02
2017-01-22T03:32:44.615Z,89.64
2017-01-22T03:33:25.149Z,89.83
2017-01-22T03:34:05.680Z,89.83
2017-01-22T03:34:46.205Z,89.83
2017-01-22T03:35:26.732Z,89.93
2017-01-22T03:36:07.257Z,89.93
2017-01-22T03:36:47.785Z,89.93
2017-01-22T03:37:28.310Z,90.02
2017-01-22T03:38:08.826Z,89.93
2017-01-22T03:38:49.358Z,90.12
2017-01-22T03:39:29.884Z,90.12
2017-01-22T03:40:10.404Z,89.45
2017-01-22T03:40:51.070Z,90.4
2017-01-22T03:41:31.594Z,90.68
2017-01-22T03:42:12.125Z,90.4
2017-01-22T03:42:52.650Z,90.21
2017-01-22T03:43:33.189Z,90.59
2017-01-22T03:44:13.714Z,90.5
2017-01-22T03:44:54.243Z,90.31
2017-01-22T03:45:34.768Z,90.4
2017-01-22T03:46:15.297Z,90.02
2017-01-22T03:46:55.824Z,90.12
2017-01-22T03:47:36.355Z,90.31
2017-01-22T03:48:16.880Z,90.31
2017-01-22T03:48:57.410Z,91.06
2017-01-22T03:49:37.938Z,90.97
2017-01-22T03:50:18.466Z,90.97
2017-01-22T03:50:58.993Z,90.87
2017-01-22T03:51:39.520Z,90.78
2017-01-22T03:52:20.047Z,90.5
2017-01-22T03:53:00.577Z,90.68
2017-01-22T03:53:41.101Z,90.59
2017-01-22T03:54:21.628Z,90.68
2017-01-22T03:55:02.157Z,90.78
2017-01-22T03:55:42.689Z,90.59
2017-01-22T03:56:23.261Z,90.59
2017-01-22T03:57:03.798Z,90.59
2017-01-22T03:57:44.329Z,90.31
2017-01-22T03:58:24.850Z,90.4
2017-01-22T03:59:05.381Z,90.78
2017-01-22T03:59:45.904Z,90.5
2017-01-22T04:00:26.430Z,90.78
2017-01-22T04:01:06.955Z,90.97
2017-01-22T04:01:47.482Z,90.78
2017-01-22T04:02:28.005Z,90.78
2017-01-22T04:03:08.533Z,91.25
2017-01-22T04:03:49.054Z,91.16
2017-01-22T04:04:29.586Z,91.25
2017-01-22T04:05:10.105Z,91.35
2017-01-22T04:05:50.632Z,91.53
2017-01-22T04:06:31.155Z,91.06
2017-01-22T04:07:11.686Z,90.87
2017-01-22T04:07:52.206Z,90.97
2017-01-22T04:08:32.734Z,91.06
2017-01-22T04:09:13.268Z,90.97
2017-01-22T04:09:53.801Z,90.97
2017-01-22T04:10:34.413Z,91.06
2017-01-22T04:11:14.945Z,91.16
2017-01-22T04:11:55.472Z,91.35
2017-01-22T04:12:35.998Z,91.53
2017-01-22T04:13:16.526Z,91.25
2017-01-22T04:13:57.053Z,91.25
2017-01-22T04:14:37.583Z,91.35
2017-01-22T04:15:18.107Z,91.72
2017-01-22T04:15:58.635Z,91.49
2017-01-22T04:16:39.162Z,91.53
2017-01-22T04:17:19.691Z,90.78
2017-01-22T04:18:00.210Z,91.44
2017-01-22T04:18:40.734Z,91.35
2017-01-22T04:19:21.258Z,91.53
2017-01-22T04:20:01.784Z,91.44
2017-01-22T04:20:42.313Z,91.44
2017-01-22T04:21:22.837Z,91.44
2017-01-22T04:22:03.360Z,91.44
2017-01-22T04:22:43.887Z,91.53
2017-01-22T04:23:24.413Z,91.35
2017-01-22T04:24:04.935Z,91.44
2017-01-22T04:24:45.476Z,91.53
2017-01-22T04:25:26.010Z,91.53
2017-01-22T04:26:06.538Z,91.53
2017-01-22T04:26:47.066Z,91.44
2017-01-22T04:27:27.597Z,91.58
2017-01-22T04:28:08.127Z,91.44
2017-01-22T04:28:48.659Z,91.49
2017-01-22T04:29:29.193Z,91.49
2017-01-22T04:30:09.720Z,91.39
2017-01-22T04:30:50.254Z,91.06
2017-01-22T04:31:30.782Z,91.02
2017-01-22T04:32:11.312Z,91.06
2017-01-22T04:32:51.839Z,91.16
2017-01-22T04:33:32.362Z,91.11
2017-01-22T04:34:12.892Z,91.35
2017-01-22T04:34:53.416Z,90.97
2017-01-22T04:35:33.939Z,91.06
2017-01-22T04:36:14.467Z,91.16
2017-01-22T04:36:54.994Z,91.25
2017-01-22T04:37:35.520Z,91.44
2017-01-22T04:38:16.043Z,90.97
2017-01-22T04:38:56.570Z,90.97
2017-01-22T04:39:37.095Z,91.25
2017-01-22T04:40:17.623Z,91.2
2017-01-22T04:40:58.151Z,91.2
2017-01-22T04:41:38.675Z,91.58
2017-01-22T04:42:19.205Z,91.2
2017-01-22T04:42:59.715Z,91.02
2017-01-22T04:43:40.244Z,91.39
2017-01-22T04:44:20.771Z,92.05
2017-01-22T04:45:01.307Z,92.05
2017-01-22T04:45:41.827Z,91.77
2017-01-22T04:46:22.349Z,91.77
2017-01-22T04:47:02.877Z,91.77
2017-01-22T04:47:43.406Z,91.49
2017-01-22T04:48:23.934Z,91.58
2017-01-22T04:49:04.469Z,91.67
2017-01-22T04:49:45.000Z,91.58
2017-01-22T04:50:25.528Z,91.77
2017-01-22T04:51:06.050Z,91.77
2017-01-22T04:51:46.577Z,91.67
2017-01-22T04:52:27.114Z,91.86
2017-01-22T04:53:07.643Z,91.3
2017-01-22T04:53:48.172Z,91.77
2017-01-22T04:54:28.702Z,91.58
2017-01-22T04:55:09.235Z,91.67
2017-01-22T04:55:49.766Z,91.77
2017-01-22T04:56:30.301Z,91.67
2017-01-22T04:57:10.831Z,91.96
2017-01-22T04:57:51.356Z,91.67
2017-01-22T04:58:31.883Z,91.67
2017-01-22T04:59:12.411Z,91.67
2017-01-22T04:59:52.938Z,91.58
2017-01-22T05:00:33.465Z,91.86
2017-01-22T05:01:13.992Z,91.86
2017-01-22T05:01:54.526Z,91.67
2017-01-22T05:02:35.055Z,91.77
2017-01-22T05:03:15.585Z,91.77
2017-01-22T05:03:56.115Z,92.05
2017-01-22T05:04:36.644Z,91.96
2017-01-22T05:05:17.178Z,91.67
2017-01-22T05:05:57.706Z,91.58
2017-01-22T05:06:38.270Z,92.33
2017-01-22T05:07:18.805Z,92.24
2017-01-22T05:07:59.342Z,92.43
2017-01-22T05:08:39.868Z,92.24
2017-01-22T05:09:20.389Z,92.33
2017-01-22T05:10:00.925Z,92.24
2017-01-22T05:10:41.454Z,91.96
2017-01-22T05:11:21.974Z,92.05
2017-01-22T05:12:02.509Z,92.24
2017-01-22T05:12:43.028Z,91.96
2017-01-22T05:13:23.559Z,92.14
2017-01-22T05:14:04.084Z,92.24
2017-01-22T05:14:44.607Z,92.24
2017-01-22T05:15:25.130Z,92.14
2017-01-22T05:16:05.658Z,91.86
2017-01-22T05:16:46.190Z,92.05
2017-01-22T05:17:26.720Z,91.67
2017-01-22T05:18:07.247Z,91.77
2017-01-22T05:18:47.776Z,91.86
2017-01-22T05:19:28.303Z,91.77
2017-01-22T05:20:08.824Z,91.77
2017-01-22T05:20:49.355Z,91.96
2017-01-22T05:21:29.888Z,91.77
2017-01-22T05:22:10.417Z,91.96
2017-01-22T05:22:50.942Z,91.96
2017-01-22T05:23:31.473Z,91.67
2017-01-22T05:24:11.995Z,91.67
2017-01-22T05:24:52.525Z,91.67
2017-01-22T05:25:33.044Z,91.58
2017-01-22T05:26:13.577Z,91.58
2017-01-22T05:26:54.111Z,91.77
2017-01-22T05:27:34.636Z,91.58
2017-01-22T05:28:15.166Z,91.67
2017-01-22T05:28:55.696Z,91.67
2017-01-22T05:29:36.208Z,91.67
2017-01-22T05:30:16.740Z,91.58
2017-01-22T05:30:57.268Z,91.67
2017-01-22T05:31:37.827Z,92.9
2017-01-22T05:32:18.327Z,92.99
2017-01-22T05:32:58.860Z,92.99
2017-01-22T05:33:39.391Z,93.09
2017-01-22T05:34:19.920Z,92.71
2017-01-22T05:35:00.484Z,92.71
2017-01-22T05:35:41.013Z,92.9
2017-01-22T05:36:21.531Z,92.9
2017-01-22T05:37:02.098Z,92.71
2017-01-22T05:37:42.596Z,92.71
2017-01-22T05:38:23.124Z,92.43
2017-01-22T05:39:03.651Z,92.61
2017-01-22T05:39:44.180Z,92.61
2017-01-22T05:40:24.704Z,92.8
2017-01-22T05:41:05.231Z,92.9
2017-01-22T05:41:45.753Z,92.8
2017-01-22T05:42:26.286Z,92.71
2017-01-22T05:43:06.814Z,92.61
2017-01-22T05:43:47.345Z,92.61
2017-01-22T05:44:27.876Z,92.61
2017-01-22T05:45:08.405Z,92.43
2017-01-22T05:45:48.933Z,92.61
2017-01-22T05:46:29.461Z,92.71
2017-01-22T05:47:09.998Z,92.99
2017-01-22T05:47:50.525Z,92.99
2017-01-22T05:48:31.042Z,93.09
2017-01-22T05:49:11.586Z,92.99
2017-01-22T05:49:52.115Z,93.18
2017-01-22T05:50:32.647Z,92.71
2017-01-22T05:51:13.167Z,92.71
2017-01-22T05:51:53.704Z,92.71
2017-01-22T05:52:34.229Z,92.9
2017-01-22T05:53:14.758Z,92.99
2017-01-22T05:53:55.286Z,92.9
2017-01-22T05:54:35.809Z,92.43
2017-01-22T05:55:16.347Z,92.61
2017-01-22T05:55:56.871Z,93.47
2017-01-22T05:56:37.401Z,92.43
2017-01-22T05:57:17.926Z,92.99
2017-01-22T05:57:58.455Z,93.47
2017-01-22T05:58:38.982Z,92.8
2017-01-22T05:59:19.510Z,92.71
2017-01-22T06:00:00.045Z,92.71
2017-01-22T06:00:40.579Z,93.47
2017-01-22T06:01:21.106Z,92.99
2017-01-22T06:02:01.632Z,93.09
2017-01-22T06:02:42.163Z,92.43
2017-01-22T06:03:22.690Z,93.47
2017-01-22T06:04:03.215Z,93.37
2017-01-22T06:04:43.746Z,93.47
2017-01-22T06:05:24.277Z,93.47
2017-01-22T06:06:04.808Z,92.99
2017-01-22T06:06:45.342Z,93.18
2017-01-22T06:07:25.865Z,93.28
2017-01-22T06:08:06.393Z,93.28
2017-01-22T06:08:46.947Z,93.28
2017-01-22T06:09:27.477Z,92.9
2017-01-22T06:10:08.010Z,93.09
2017-01-22T06:10:48.538Z,93.65
2017-01-22T06:11:29.061Z,93.75
2017-01-22T06:12:09.597Z,93.56
2017-01-22T06:12:50.115Z,93.47
2017-01-22T06:13:30.645Z,93.47
2017-01-22T06:14:11.173Z,93.47
2017-01-22T06:14:51.702Z,93.56
2017-01-22T06:15:32.237Z,93.47
2017-01-22T06:16:12.766Z,93.65
2017-01-22T06:16:53.298Z,93.56
2017-01-22T06:17:33.821Z,93.47
2017-01-22T06:18:14.349Z,93.47
2017-01-22T06:18:54.868Z,93.28
2017-01-22T06:19:35.406Z,93.47
2017-01-22T06:20:15.928Z,93.28
2017-01-22T06:20:56.463Z,93.47
2017-01-22T06:21:36.990Z,92.99
2017-01-22T06:22:17.521Z,93.09
2017-01-22T06:22:58.089Z,93.47
2017-01-22T06:23:38.619Z,93.09
2017-01-22T06:24:19.145Z,93.09
2017-01-22T06:24:59.704Z,93.09
2017-01-22T06:25:40.198Z,93.18
2017-01-22T06:26:20.727Z,93.28
2017-01-22T06:27:01.261Z,93.37
2017-01-22T06:27:41.801Z,93.28
2017-01-22T06:28:22.306Z,93.47
2017-01-22T06:29:02.834Z,93.37
2017-01-22T06:29:43.369Z,93.56
2017-01-22T06:30:23.893Z,93.28
2017-01-22T06:31:04.421Z,93.65
2017-01-22T06:31:44.954Z,93.75
2017-01-22T06:32:25.480Z,93.75
2017-01-22T06:33:06.009Z,93.94
2017-01-22T06:33:46.535Z,94.03
2017-01-22T06:34:27.058Z,94.13
2017-01-22T06:35:07.748Z,93.75
2017-01-22T06:35:48.276Z,93.65
2017-01-22T06:36:28.805Z,93.75
2017-01-22T06:37:09.376Z,93.75
2017-01-22T06:37:49.898Z,93.65
2017-01-22T06:38:30.680Z,93.75
2017-01-22T06:39:11.355Z,93.75
2017-01-22T06:39:51.881Z,93.75
2017-01-22T06:40:32.429Z,93.75
2017-01-22T06:41:12.963Z,93.84
2017-01-22T06:41:53.494Z,93.84
2017-01-22T06:42:34.069Z,93.84
2017-01-22T06:43:14.598Z,93.94
2017-01-22T06:43:55.112Z,94.03
2017-01-22T06:44:35.680Z,93.94
2017-01-22T06:45:16.184Z,93.65
2017-01-22T06:45:56.715Z,93.75
2017-01-22T06:46:37.247Z,93.65
2017-01-22T06:47:17.815Z,93.65
2017-01-22T06:47:58.477Z,93.65
2017-01-22T06:48:39.150Z,93.65
2017-01-22T06:49:19.678Z,93.75
2017-01-22T06:50:00.208Z,93.65
2017-01-22T06:50:40.741Z,93.65
2017-01-22T06:51:21.288Z,93.56
2017-01-22T06:52:01.796Z,93.84
2017-01-22T06:52:42.329Z,93.09
2017-01-22T06:53:22.858Z,93.37
2017-01-22T06:54:03.390Z,93.47
2017-01-22T06:54:43.933Z,93.28
2017-01-22T06:55:24.464Z,93.37
2017-01-22T06:56:04.998Z,93.47
2017-01-22T06:56:45.521Z,94.32
2017-01-22T06:57:26.060Z,93.09
2017-01-22T06:58:06.607Z,94.32
2017-01-22T06:58:47.103Z,94.03
2017-01-22T06:59:27.631Z,94.13
2017-01-22T07:00:08.165Z,94.22
2017-01-22T07:00:48.696Z,94.22
2017-01-22T07:01:29.218Z,94.32
2017-01-22T07:02:09.753Z,93.75
2017-01-22T07:02:50.276Z,93.75
2017-01-22T07:03:30.809Z,93.75
2017-01-22T07:04:11.338Z,94.51
2017-01-22T07:04:51.849Z,94.41
2017-01-22T07:05:32.377Z,94.41
2017-01-22T07:06:12.919Z,94.41
2017-01-22T07:06:53.448Z,93.94
2017-01-22T07:07:33.972Z,94.41
2017-01-22T07:08:14.501Z,94.51
2017-01-22T07:08:55.032Z,94.13
2017-01-22T07:09:35.563Z,94.13
2017-01-22T07:10:16.086Z,94.08
2017-01-22T07:10:56.601Z,94.32
2017-01-22T07:11:37.132Z,94.36
2017-01-22T07:12:17.662Z,94.27
2017-01-22T07:12:58.198Z,94.13
2017-01-22T07:13:38.721Z,94.17
2017-01-22T07:14:19.251Z,94.08
2017-01-22T07:14:59.780Z,94.08
2017-01-22T07:15:40.319Z,94.36
2017-01-22T07:16:20.841Z,94.08
2017-01-22T07:17:01.371Z,94.08
2017-01-22T07:17:41.894Z,93.8
2017-01-22T07:18:22.423Z,94.17
2017-01-22T07:19:02.954Z,94.27
2017-01-22T07:19:43.485Z,94.36
2017-01-22T07:20:24.008Z,93.98
2017-01-22T07:21:04.542Z,93.98
2017-01-22T07:21:45.076Z,94.17
2017-01-22T07:22:25.601Z,94.17
2017-01-22T07:23:06.127Z,94.08
2017-01-22T07:23:46.655Z,94.08
2017-01-22T07:24:27.188Z,94.27
2017-01-22T07:25:07.737Z,94.27
2017-01-22T07:25:48.271Z,94.46
2017-01-22T07:26:28.798Z,94.46
2017-01-22T07:27:09.327Z,94.36
2017-01-22T07:27:49.852Z,94.46
2017-01-22T07:28:30.379Z,94.36
2017-01-22T07:29:10.909Z,94.46
2017-01-22T07:29:51.442Z,94.65
2017-01-22T07:30:31.963Z,94.74
2017-01-22T07:31:12.500Z,94.65
2017-01-22T07:31:53.033Z,94.65
2017-01-22T07:32:33.561Z,94.36
2017-01-22T07:33:14.089Z,94.93
2017-01-22T07:33:54.619Z,95.02
2017-01-22T07:34:35.146Z,95.02
2017-01-22T07:35:15.676Z,94.93
2017-01-22T07:35:56.204Z,94.93
2017-01-22T07:36:36.737Z,94.93
2017-01-22T07:37:17.269Z,95.02
2017-01-22T07:37:57.798Z,94.83
2017-01-22T07:38:38.326Z,94.83
2017-01-22T07:39:18.897Z,94.93
2017-01-22T07:39:59.428Z,95.02
2017-01-22T07:40:39.955Z,95.02
2017-01-22T07:41:20.483Z,94.65
2017-01-22T07:42:01.007Z,95.02
2017-01-22T07:42:41.538Z,94.74
2017-01-22T07:43:22.066Z,94.74
2017-01-22T07:44:02.590Z,94.83
2017-01-22T07:44:43.124Z,94.74
2017-01-22T07:45:23.648Z,94.83
2017-01-22T07:46:04.186Z,94.98
2017-01-22T07:46:44.710Z,94.98
2017-01-22T07:47:25.238Z,94.98
2017-01-22T07:48:05.769Z,94.79
2017-01-22T07:48:46.291Z,94.88
2017-01-22T07:49:26.820Z,94.79
2017-01-22T07:50:07.350Z,94.6
2017-01-22T07:50:47.875Z,94.69
2017-01-22T07:51:28.398Z,94.69
2017-01-22T07:52:08.933Z,94.98
2017-01-22T07:52:49.476Z,94.69
2017-01-22T07:53:29.994Z,94.98
2017-01-22T07:54:11.059Z,94.69
2017-01-22T07:54:51.585Z,94.98
2017-01-22T07:55:32.119Z,94.69
2017-01-22T07:56:12.673Z,94.88
2017-01-22T07:56:53.178Z,94.79
2017-01-22T07:57:33.705Z,94.79
2017-01-22T07:58:14.234Z,94.88
2017-01-22T07:58:54.774Z,94.79
2017-01-22T07:59:35.305Z,94.79
2017-01-22T08:00:15.907Z,94.69
2017-01-22T08:00:56.439Z,94.79
2017-01-22T08:01:36.965Z,94.79
2017-01-22T08:02:17.505Z,94.79
2017-01-22T08:02:58.032Z,94.79
2017-01-22T08:03:38.561Z,94.79
2017-01-22T08:04:19.090Z,94.69
2017-01-22T08:04:59.613Z,94.79
2017-01-22T08:05:40.147Z,94.51
2017-01-22T08:06:20.672Z,94.88
2017-01-22T08:07:01.196Z,95.07
2017-01-22T08:07:41.725Z,94.51
2017-01-22T08:08:22.914Z,94.79
2017-01-22T08:09:03.594Z,94.88
2017-01-22T08:09:44.597Z,94.88
2017-01-22T08:10:25.333Z,94.51
2017-01-22T08:11:05.910Z,94.88
2017-01-22T08:11:46.619Z,94.98
2017-01-22T08:12:27.309Z,94.88
2017-01-22T08:13:07.838Z,94.51
2017-01-22T08:13:48.542Z,94.51
2017-01-22T08:14:29.071Z,94.88
2017-01-22T08:15:09.644Z,95.17
2017-01-22T08:15:50.163Z,94.88
2017-01-22T08:16:30.683Z,94.51
2017-01-22T08:17:11.421Z,94.79
2017-01-22T08:17:51.977Z,94.79
2017-01-22T08:18:33.471Z,94.88
2017-01-22T08:19:13.995Z,95.17
2017-01-22T08:19:54.522Z,94.79
2017-01-22T08:20:35.055Z,94.69
2017-01-22T08:21:15.585Z,94.69
2017-01-22T08:21:56.403Z,94.6
2017-01-22T08:22:36.926Z,94.88
2017-01-22T08:23:17.455Z,94.69
2017-01-22T08:23:57.981Z,95.07
2017-01-22T08:24:38.517Z,95.07
2017-01-22T08:25:19.039Z,94.98
2017-01-22T08:25:59.565Z,94.88
2017-01-22T08:26:40.096Z,94.69
2017-01-22T08:27:20.625Z,94.32
2017-01-22T08:28:01.146Z,94.22
2017-01-22T08:28:41.666Z,94.03
2017-01-22T08:29:22.197Z,93.94
2017-01-22T08:30:02.736Z,94.22
2017-01-22T08:30:43.267Z,94.22
2017-01-22T08:31:23.796Z,94.03
2017-01-22T08:32:04.322Z,94.32
2017-01-22T08:32:44.851Z,94.41
2017-01-22T08:33:25.376Z,94.32
2017-01-22T08:34:05.905Z,94.22
2017-01-22T08:34:46.425Z,94.13
2017-01-22T08:35:26.960Z,94.13
2017-01-22T08:36:07.483Z,94.22
2017-01-22T08:36:48.011Z,94.41
2017-01-22T08:37:28.544Z,94.22
2017-01-22T08:38:09.470Z,94.69
2017-01-22T08:38:50.118Z,94.41
2017-01-22T08:39:30.650Z,94.41
2017-01-22T08:40:11.172Z,94.51
2017-01-22T08:40:51.702Z,94.41
2017-01-22T08:41:32.328Z,94.41
2017-01-22T08:42:12.922Z,93.94
2017-01-22T08:42:53.574Z,93.94
2017-01-22T08:43:34.095Z,94.22
2017-01-22T08:44:15.047Z,94.03
2017-01-22T08:44:55.733Z,94.03
2017-01-22T08:45:36.266Z,92.9
2017-01-22T08:46:16.914Z,93.37
2017-01-22T08:46:57.546Z,93.09
2017-01-22T08:47:38.235Z,92.99
2017-01-22T08:48:18.766Z,93.09
2017-01-22T08:48:59.580Z,93.75
2017-01-22T08:49:40.236Z,93.65
2017-01-22T08:50:20.875Z,93.84
2017-01-22T08:51:01.404Z,93.37
2017-01-22T08:51:41.934Z,93.65
2017-01-22T08:52:22.711Z,93.56
2017-01-22T08:53:03.320Z,93.37
2017-01-22T08:53:43.966Z,93.37
2017-01-22T08:54:24.495Z,93.37
2017-01-22T08:55:05.014Z,93.28
2017-01-22T08:55:45.869Z,93.65
2017-01-22T08:56:26.399Z,93.65
2017-01-22T08:57:07.014Z,93.47
2017-01-22T08:57:47.571Z,93.56
2017-01-22T08:58:28.154Z,93.28
2017-01-22T08:59:08.665Z,93.18
2017-01-22T08:59:49.278Z,93.18
2017-01-22T09:00:30.025Z,93.18
2017-01-22T09:01:10.617Z,92.61
2017-01-22T09:01:51.419Z,92.43
2017-01-22T09:02:31.951Z,92.9
2017-01-22T09:03:12.485Z,92.95
2017-01-22T09:03:53.216Z,92.76
2017-01-22T09:04:33.757Z,93.13
2017-01-22T09:05:14.288Z,93.04
2017-01-22T09:05:54.818Z,92.57
2017-01-22T09:06:35.371Z,92.76
2017-01-22T09:07:15.890Z,92.76
2017-01-22T09:07:56.415Z,92.95
2017-01-22T09:08:36.966Z,91.82
2017-01-22T09:09:17.501Z,92.38
2017-01-22T09:09:58.106Z,91.63
2017-01-22T09:10:38.647Z,91.72
2017-01-22T09:11:19.178Z,91.91
2017-01-22T09:11:59.733Z,91.96
2017-01-22T09:12:40.338Z,91.77
2017-01-22T09:13:20.889Z,91.39
2017-01-22T09:14:01.451Z,91.49
2017-01-22T09:14:41.986Z,91.2
2017-01-22T09:15:22.511Z,91.11
2017-01-22T09:16:03.037Z,90.92
2017-01-22T09:16:43.627Z,90.35
2017-01-22T09:17:24.172Z,90.59
2017-01-22T09:18:04.861Z,89.92
2017-01-22T09:18:45.432Z,89.64
2017-01-22T09:19:25.962Z,89.07
2017-01-22T09:20:06.490Z,87.23
2017-01-22T09:20:47.011Z,87.42
2017-01-22T09:21:28.467Z,86.61
2017-01-22T09:22:09.095Z,85.95
2017-01-22T09:22:49.753Z,85.28